Terminal Aerodrome Forecast
Issued by NWS

Home | Current Version | Previous Version | Text Only | Print | Product List | Glossary On
Versions: 1 2 3 4 5 6 7 8 9 10 11 12 13 14 15
231
FTUS42 KTBW 241737
TAFLAL
TAF
KLAL 241737Z 2418/2518 13005KT P6SM VCTS SCT040CB BKN060
      TEMPO 2418/2422 VRB15G25KT 2SM +TSRA BKN025CB
     FM242200 16007KT 6SM SHRA VCTS BKN040CB BKN120
     FM250000 16005KT P6SM VCTS SCT040CB BKN120 OVC250
     FM250300 VRB03KT P6SM BKN120 BKN200
     FM250600 00000KT P6SM FEW120 SCT250
     FM251500 15006KT P6SM SCT035 SCT250=

USA.gov is the U.S. government's official web portal to all federal, state and local government web resources and services.